Flight Track Log - Related Links

Times and Time Zones

All times are in EDT time to prevent confusion due to time zone crossing. See the EJM622 flight status page for this flight to view local times or setup timezone preferences in your user account.

Time Position Orientation Groundspeed Altitude Reporting Facility
EDT Latitude Longitude Course Direction KTS MPH feet Rate Location/Type
Thu 03:08:55 PM 44.8869 -93.3172 241° Southwest 258 297 4,500  Level Minneapolis Center
Thu 03:09:57 PM 44.8517 -93.4061 241° Southwest 288 331 6,600 2,516 Climbing Minneapolis Center
Thu 03:10:59 PM 44.7739 -93.4444 199° South 300 345 9,700 3,387 Climbing Minneapolis Center
Thu 03:12:01 PM 44.6708 -93.4978 200° South 342 394 13,600 3,435 Climbing Minneapolis Center
Thu 03:13:03 PM 44.5778 -93.5453 200° South 360 414 16,800 2,952 Climbing Minneapolis Center
Thu 03:14:05 PM 44.4811 -93.5944 200° South 370 426 19,700 2,855 Climbing Minneapolis Center
Thu 03:15:07 PM 44.3844 -93.6519 203° Southwest 377 434 22,700 2,613 Climbing Minneapolis Center
Thu 03:16:09 PM 44.2906 -93.7297 211° Southwest 392 451 25,100 2,352 Climbing Minneapolis Center
Thu 03:17:12 PM 44.1706 -93.8194 208° Southwest 406 467 27,600 2,016 Climbing Minneapolis Center
Thu 03:18:14 PM 44.0472 -93.8567 192° South 449 517 29,300 1,306 Climbing Minneapolis Center
Thu 03:19:16 PM 43.9183 -93.8961 192° South 469 540 30,300 968 Climbing Minneapolis Center
Thu 03:20:18 PM 43.7856 -93.9369 193° South 486 559 31,300 1,161 Climbing Minneapolis Center
Thu 03:21:20 PM 43.6494 -93.9803 193° South 496 571 32,700 1,452 Climbing Minneapolis Center
Thu 03:22:22 PM 43.5161 -94.0219 193° South 496 571 34,300 1,500 Climbing Minneapolis Center
Thu 03:23:24 PM 43.3553 -94.0711 193° South 497 572 35,800 823 Climbing Minneapolis Center
Thu 03:24:26 PM 43.2244 -94.1106 192° South 495 570 36,000 258 Climbing Minneapolis Center
Thu 03:26:00 PM 43.0351 -94.1685 197° South  Level Estimated
Thu 03:26:30 PM 42.9697 -94.1686 197° South 483 556 36,600  Level Minneapolis Center
Thu 03:27:32 PM 42.8350 -94.1883 186° South 490 564 37,600 1,161 Climbing Minneapolis Center
Thu 03:28:34 PM 42.6817 -94.2336 192° South 478 550 39,000 1,161 Climbing Minneapolis Center
Thu 03:29:36 PM 42.5531 -94.2675 191° South 474 545 40,000 484 Climbing Minneapolis Center
Thu 03:30:38 PM 42.4094 -94.3025 190° South 470 541 40,000  Level Minneapolis Center
Thu 03:31:40 PM 42.2831 -94.3356 191° South 463 533 40,000  Level Minneapolis Center
Thu 03:32:42 PM 42.1569 -94.3697 191° South 462 532 40,000  Level Minneapolis Center
Thu 03:33:45 PM 42.0300 -94.4033 191° South 463 533 40,000  Level Minneapolis Center
Thu 03:34:47 PM 41.9033 -94.4358 191° South 462 532 40,000  Level Minneapolis Center
Thu 03:35:49 PM 41.7744 -94.4681 191° South 466 536 40,000  Level Minneapolis Center
Thu 03:36:51 PM 41.6481 -94.5008 191° South 463 533 40,000  Level Minneapolis Center
Thu 03:37:53 PM 41.4925 -94.5419 191° South 470 541 40,000  Level Minneapolis Center
Thu 03:38:55 PM 41.3644 -94.5742 191° South 469 540 40,000  Level Minneapolis Center
Thu 03:39:57 PM 41.2381 -94.6058 191° South 464 534 40,000  Level Minneapolis Center
Thu 03:40:59 PM 41.1117 -94.6375 191° South 461 531 40,000  Level Minneapolis Center
Thu 03:42:01 PM 40.9864 -94.6703 191° South 459 528 40,000  Level Minneapolis Center
Thu 03:43:03 PM 40.8611 -94.7022 191° South 457 526 40,000  Level Minneapolis Center
Thu 03:44:05 PM 40.7356 -94.7333 191° South 457 526 40,000  Level Minneapolis Center
Thu 03:45:07 PM 40.5842 -94.7697 190° South 457 526 40,000  Level Minneapolis Center
Thu 03:46:09 PM 40.4547 -94.8053 192° South 464 534 40,000  Level Minneapolis Center
Thu 03:47:10 PM 40.3408 -94.8325 190° South 464 534 40,000  Level Kansas City Center
Thu 03:48:11 PM 40.1994 -94.8667 190° South 461 531 40,000  Level Kansas City Center
Thu 03:49:12 PM 40.0797 -94.8961 191° South 457 526 40,000  Level Kansas City Center
Thu 03:50:15 PM 39.9394 -94.9303 191° South 459 528 40,000  Level Kansas City Center
Thu 03:51:16 PM 39.8189 -94.9589 190° South 459 528 40,000  Level Kansas City Center
Thu 03:52:19 PM 39.6972 -94.9894 191° South 462 532 40,000  Level Kansas City Center
Thu 03:53:20 PM 39.5564 -95.0233 191° South 460 529 40,000  Level Kansas City Center
Thu 03:54:24 PM 39.4342 -95.0522 190° South 464 534 40,000  Level Kansas City Center
Thu 03:55:25 PM 39.2897 -95.0867 190° South 467 537 40,000  Level Kansas City Center
Thu 03:56:27 PM 39.1550 -95.1189 191° South 468 539 40,000  Level Kansas City Center
Thu 03:57:31 PM 39.0286 -95.1475 190° South 468 539 40,000  Level Kansas City Center
Thu 03:58:32 PM 38.8983 -95.1772 190° South 460 529 40,000  Level Kansas City Center
Thu 03:59:35 PM 38.7575 -95.2111 191° South 459 528 40,000  Level Kansas City Center
Thu 04:00:39 PM 38.6361 -95.2381 190° South 461 531 40,000  Level Kansas City Center
Thu 04:01:39 PM 38.5147 -95.2669 191° South 462 532 40,000  Level Kansas City Center
Thu 04:02:43 PM 38.3742 -95.2997 190° South 460 529 40,000  Level Kansas City Center
Thu 04:03:44 PM 38.2531 -95.3256 190° South 460 529 40,000  Level Kansas City Center
Thu 04:04:47 PM 38.1108 -95.3600 191° South 463 533 40,000  Level Kansas City Center
Thu 04:05:48 PM 37.9886 -95.3875 190° South 465 535 40,000  Level Kansas City Center
Thu 04:06:51 PM 37.8639 -95.4183 191° South 460 529 40,000  Level Kansas City Center
Thu 04:07:52 PM 37.7108 -95.4544 191° South 465 535 40,000  Level Kansas City Center
Thu 04:08:55 PM 37.5825 -95.4775 188° South 465 535 40,000  Level Kansas City Center
Thu 04:09:57 PM 37.4528 -95.4614 174° South 465 535 40,000  Level Kansas City Center
Thu 04:10:57 PM 37.3231 -95.4481 175° South 465 535 40,000  Level Kansas City Center
Thu 04:12:01 PM 37.1933 -95.4386 177° South 465 535 40,000  Level Kansas City Center
Thu 04:13:01 PM 37.0631 -95.4300 177° South 467 537 40,000  Level Kansas City Center
Thu 04:14:05 PM 36.9336 -95.4206 177° South 465 535 40,000  Level Kansas City Center
Thu 04:15:06 PM 36.7800 -95.4092 177° South 459 528 40,000  Level Kansas City Center
Thu 04:16:07 PM 36.6508 -95.3994 177° South 460 529 40,000  Level Kansas City Center
Thu 04:17:11 PM 36.5158 -95.3894 177° South 461 531 40,000  Level Kansas City Center
Thu 04:18:12 PM 36.3842 -95.3797 177° South 466 536 40,000  Level Kansas City Center
Thu 04:19:15 PM 36.2539 -95.3692 176° South 468 539 40,000  Level Kansas City Center
Thu 04:20:17 PM 36.1261 -95.3614 177° South 463 533 40,000  Level Kansas City Center
Thu 04:21:17 PM 35.9942 -95.3522 177° South 455 524 40,000  Level Kansas City Center
Thu 04:22:22 PM 35.8678 -95.3431 177° South 454 522 40,000  Level Kansas City Center
Thu 04:23:23 PM 35.7400 -95.3350 177° South 457 526 40,000  Level Kansas City Center
Thu 04:24:23 PM 35.5844 -95.3231 176° South 463 533 40,000  Level Kansas City Center
Thu 04:25:26 PM 35.4542 -95.3139 177° South 466 536 40,000  Level Kansas City Center
Thu 04:26:28 PM 35.3239 -95.3047 177° South 467 537 40,000  Level Kansas City Center
Thu 04:27:33 PM 35.1944 -95.2947 176° South 465 535 40,000 -513 Level Kansas City Center
Thu 04:28:25 PM 35.0650 -95.2881 178° South 468 539 39,000 -536 Descending Fort Worth Center
Thu 04:29:25 PM 34.9444 -95.3161 191° South 443 510 39,000  Level Fort Worth Center
Thu 04:30:25 PM 34.8350 -95.3872 208° Southwest 437 503 39,000  Level Fort Worth Center
Thu 04:31:25 PM 34.7236 -95.4556 207° Southwest 442 509 39,000 -550 Level Fort Worth Center
Thu 04:32:25 PM 34.6325 -95.5131 207° Southwest 453 521 37,900 -1,950 Descending Fort Worth Center
Thu 04:33:25 PM 34.4919 -95.5969 206° Southwest 465 535 35,100 -2,800 Descending Fort Worth Center
Thu 04:34:25 PM 34.3742 -95.6672 206° Southwest 465 535 32,300 -4,350 Descending Fort Worth Center
Thu 04:35:25 PM 34.2622 -95.7375 207° Southwest 465 535 26,400 -4,413 Descending Fort Worth Center
Thu 04:36:26 PM 34.1525 -95.8022 206° Southwest 460 529 23,400 -2,250 Descending Fort Worth Center
Thu 04:37:25 PM 34.0533 -95.8617 206° Southwest 446 513 21,900 -1,664 Descending Fort Worth Center
Thu 04:38:25 PM 33.9392 -95.9314 207° Southwest 429 494 20,100 -1,800 Descending Fort Worth Center
Thu 04:39:25 PM 33.8314 -95.9983 207° Southwest 429 494 18,300 -1,650 Descending Fort Worth Center
Thu 04:40:25 PM 33.7444 -96.0472 205° Southwest 405 466 16,800 -1,650 Descending Fort Worth Center
Thu 04:41:25 PM 33.6325 -96.1136 206° Southwest 400 460 15,000 -1,650 Descending Fort Worth Center
Thu 04:42:25 PM 33.5433 -96.1672 207° Southwest 400 460 13,500 -1,600 Descending Fort Worth Center
Thu 04:43:25 PM 33.4394 -96.2311 207° Southwest 395 455 11,800 -1,450 Descending Fort Worth Center
Thu 04:44:25 PM 33.3689 -96.2717 206° Southwest 344 396 10,600 -1,250 Descending Fort Worth Center
Thu 04:45:25 PM 33.2858 -96.3225 207° Southwest 308 354 9,300 -1,150 Descending Fort Worth Center
Thu 04:46:25 PM 33.2319 -96.3803 222° Southwest 294 338 8,300 -1,215 Descending Fort Worth Center
Thu 04:46:44 PM 33.2167 -96.4000 227° Southwest 291 335 7,700 -918 Descending Dallas / Fort Worth TRACON
Thu 04:47:50 PM 33.1667 -96.5000 239° Southwest 276 318 7,000 -333 Descending Dallas / Fort Worth TRACON
Thu 04:48:50 PM 33.1333 -96.5833 244° Southwest 282 325 7,000 63 Level Dallas / Fort Worth TRACON
Thu 04:49:25 PM 33.0981 -96.6050 207° Southwest 280 322 7,100 -300 Climbing Fort Worth Center
Thu 04:49:50 PM 33.0667 -96.6333 217° Southwest 285 328 6,700 -1,465 Descending Dallas / Fort Worth TRACON
Thu 04:50:51 PM 33.0333 -96.7167 245° Southwest 284 327 5,000 -843 Descending Dallas / Fort Worth TRACON
Thu 04:51:51 PM 33.0000 -96.8000 245° Southwest 244 281 5,000 -150 Level Dallas / Fort Worth TRACON
Thu 04:52:51 PM 33.0000 -96.8667 270° West 232 267 4,700 -958 Descending Dallas / Fort Worth TRACON
Thu 04:53:50 PM 33.0000 -96.9500 270° West 207 238 3,100 -1,250 Descending Dallas / Fort Worth TRACON
Thu 04:54:51 PM 32.9500 -96.9667 196° South 191 220 2,200 -645 Descending Dallas / Fort Worth TRACON
Thu 04:55:51 PM 32.9167 -96.9167 128° Southeast 182 209 1,800 -500 Descending Dallas / Fort Worth TRACON
Thu 04:56:51 PM 32.8833 -96.8833 140° Southeast 139 160 1,200 -600 Descending Dallas / Fort Worth TRACON
Thu 04:59:00 PM 32.8471 -96.8518 228° Southwest  Level Estimated
Thu 05:06:00 PM 32.8471 -96.8518 228° Southwest  Level Estimated

Login

Don't have an account? Register now (free) for customized features, flight alerts, and more!